sensor_id;sensor_type;location;lat;lon;timestamp;pressure;altitude;pressure_sealevel;temperature;humidity
50103;BME280;35993;52.604;10.078;2023-07-29T00:01:36;100355.19;;;18.90;100.00
50103;BME280;35993;52.604;10.078;2023-07-29T00:04:02;100355.19;;;18.79;100.00
50103;BME280;35993;52.604;10.078;2023-07-29T00:06:27;100357.63;;;18.86;100.00
50103;BME280;35993;52.604;10.078;2023-07-29T00:08:53;100356.25;;;18.94;100.00
50103;BME280;35993;52.604;10.078;2023-07-29T00:11:19;100348.84;;;18.94;100.00
50103;BME280;35993;52.604;10.078;2023-07-29T00:13:44;100349.13;;;18.93;100.00
50103;BME280;35993;52.604;10.078;2023-07-29T00:16:10;100345.81;;;18.96;100.00
50103;BME280;35993;52.604;10.078;2023-07-29T00:18:36;100351.28;;;19.01;100.00
50103;BME280;35993;52.604;10.078;2023-07-29T00:21:01;100356.00;;;18.95;100.00
50103;BME280;35993;52.604;10.078;2023-07-29T00:23:27;100343.09;;;18.80;100.00
50103;BME280;35993;52.604;10.078;2023-07-29T00:25:53;100350.81;;;18.73;100.00
50103;BME280;35993;52.604;10.078;2023-07-29T00:28:18;100350.28;;;18.71;100.00
50103;BME280;35993;52.604;10.078;2023-07-29T00:30:44;100360.47;;;18.65;100.00
50103;BME280;35993;52.604;10.078;2023-07-29T00:33:09;100363.22;;;18.65;100.00
50103;BME280;35993;52.604;10.078;2023-07-29T00:35:37;100360.72;;;18.69;100.00
50103;BME280;35993;52.604;10.078;2023-07-29T00:38:02;100355.53;;;18.67;100.00
50103;BME280;35993;52.604;10.078;2023-07-29T00:40:28;100358.53;;;18.71;100.00
50103;BME280;35993;52.604;10.078;2023-07-29T00:42:55;100351.97;;;18.67;100.00
50103;BME280;35993;52.604;10.078;2023-07-29T00:45:20;100356.09;;;18.59;100.00
50103;BME280;35993;52.604;10.078;2023-07-29T00:47:46;100358.31;;;18.57;100.00
50103;BME280;35993;52.604;10.078;2023-07-29T00:50:13;100353.59;;;18.68;100.00
50103;BME280;35993;52.604;10.078;2023-07-29T00:52:40;100349.97;;;18.78;100.00
50103;BME280;35993;52.604;10.078;2023-07-29T00:55:06;100356.00;;;18.85;100.00
50103;BME280;35993;52.604;10.078;2023-07-29T00:57:32;100342.84;;;18.72;100.00
50103;BME280;35993;52.604;10.078;2023-07-29T00:59:59;100339.31;;;18.66;100.00
50103;BME280;35993;52.604;10.078;2023-07-29T01:02:26;100341.19;;;18.71;100.00
50103;BME280;35993;52.604;10.078;2023-07-29T01:04:57;100339.53;;;18.80;100.00
50103;BME280;35993;52.604;10.078;2023-07-29T01:08:10;100341.28;;;18.50;100.00
50103;BME280;35993;52.604;10.078;2023-07-29T01:10:50;100344.09;;;18.14;100.00
50103;BME280;35993;52.604;10.078;2023-07-29T01:13:42;100344.09;;;18.09;100.00
50103;BME280;35993;52.604;10.078;2023-07-29T01:16:16;100345.94;;;18.60;100.00
50103;BME280;35993;52.604;10.078;2023-07-29T01:18:46;100341.81;;;18.57;100.00
50103;BME280;35993;52.604;10.078;2023-07-29T01:21:14;100345.09;;;18.59;100.00
50103;BME280;35993;52.604;10.078;2023-07-29T01:23:42;100334.34;;;18.68;100.00
50103;BME280;35993;52.604;10.078;2023-07-29T01:26:07;100338.19;;;18.72;100.00
50103;BME280;35993;52.604;10.078;2023-07-29T01:28:33;100330.78;;;18.67;100.00
50103;BME280;35993;52.604;10.078;2023-07-29T01:31:13;100329.38;;;18.75;100.00
50103;BME280;35993;52.604;10.078;2023-07-29T01:34:06;100333.28;;;18.59;100.00
50103;BME280;35993;52.604;10.078;2023-07-29T01:36:33;100337.97;;;18.53;100.00
50103;BME280;35993;52.604;10.078;2023-07-29T01:39:01;100343.69;;;18.62;100.00
50103;BME280;35993;52.604;10.078;2023-07-29T01:41:27;100339.63;;;18.49;100.00
50103;BME280;35993;52.604;10.078;2023-07-29T01:43:53;100341.00;;;18.46;100.00
50103;BME280;35993;52.604;10.078;2023-07-29T01:46:19;100347.06;;;18.43;100.00
50103;BME280;35993;52.604;10.078;2023-07-29T01:48:47;100341.84;;;18.47;100.00
50103;BME280;35993;52.604;10.078;2023-07-29T01:51:14;100341.00;;;18.46;100.00
50103;BME280;35993;52.604;10.078;2023-07-29T01:53:39;100342.09;;;18.56;100.00
50103;BME280;35993;52.604;10.078;2023-07-29T01:56:05;100338.06;;;18.01;100.00
50103;BME280;35993;52.604;10.078;2023-07-29T01:58:31;100335.56;;;17.90;100.00
50103;BME280;35993;52.604;10.078;2023-07-29T02:00:57;100338.03;;;17.86;100.00
50103;BME280;35993;52.604;10.078;2023-07-29T02:03:22;100320.47;;;17.87;100.00
50103;BME280;35993;52.604;10.078;2023-07-29T02:05:48;100334.47;;;17.91;100.00
50103;BME280;35993;52.604;10.078;2023-07-29T02:08:14;100333.94;;;17.83;100.00
50103;BME280;35993;52.604;10.078;2023-07-29T02:10:39;100333.66;;;17.85;100.00
50103;BME280;35993;52.604;10.078;2023-07-29T02:13:05;100331.47;;;17.82;100.00
50103;BME280;35993;52.604;10.078;2023-07-29T02:15:31;100331.47;;;17.92;100.00
50103;BME280;35993;52.604;10.078;2023-07-29T02:17:56;100327.38;;;17.95;100.00
50103;BME280;35993;52.604;10.078;2023-07-29T02:20:22;100327.94;;;17.97;100.00
50103;BME280;35993;52.604;10.078;2023-07-29T02:22:49;100313.91;;;17.98;100.00
50103;BME280;35993;52.604;10.078;2023-07-29T02:25:14;100311.97;;;17.94;100.00
50103;BME280;35993;52.604;10.078;2023-07-29T02:27:40;100312.25;;;17.97;100.00
50103;BME280;35993;52.604;10.078;2023-07-29T02:30:06;100312.25;;;17.97;100.00
50103;BME280;35993;52.604;10.078;2023-07-29T02:32:32;100314.19;;;17.97;100.00
50103;BME280;35993;52.604;10.078;2023-07-29T02:34:57;100312.81;;;17.94;100.00
50103;BME280;35993;52.604;10.078;2023-07-29T02:37:23;100310.59;;;17.96;100.00
50103;BME280;35993;52.604;10.078;2023-07-29T02:39:48;100315.81;;;17.98;100.00
50103;BME280;35993;52.604;10.078;2023-07-29T02:42:14;100309.22;;;17.99;100.00
50103;BME280;35993;52.604;10.078;2023-07-29T02:44:40;100309.22;;;18.04;100.00
50103;BME280;35993;52.604;10.078;2023-07-29T02:47:05;100310.59;;;18.07;100.00
50103;BME280;35993;52.604;10.078;2023-07-29T02:49:31;100314.47;;;18.06;100.00
50103;BME280;35993;52.604;10.078;2023-07-29T02:51:56;100309.78;;;18.06;100.00
50103;BME280;35993;52.604;10.078;2023-07-29T02:54:22;100305.09;;;18.07;100.00
50103;BME280;35993;52.604;10.078;2023-07-29T02:56:49;100307.03;;;18.06;100.00
50103;BME280;35993;52.604;10.078;2023-07-29T02:59:15;100298.78;;;18.06;100.00
50103;BME280;35993;52.604;10.078;2023-07-29T03:01:40;100302.34;;;18.07;100.00
50103;BME280;35993;52.604;10.078;2023-07-29T03:04:06;100303.47;;;18.06;100.00
50103;BME280;35993;52.604;10.078;2023-07-29T03:06:32;100304.28;;;18.11;100.00
50103;BME280;35993;52.604;10.078;2023-07-29T03:08:57;100305.09;;;18.12;100.00
50103;BME280;35993;52.604;10.078;2023-07-29T03:11:23;100311.72;;;18.11;100.00
50103;BME280;35993;52.604;10.078;2023-07-29T03:13:48;100307.31;;;18.10;100.00
50103;BME280;35993;52.604;10.078;2023-07-29T03:16:15;100308.13;;;18.05;100.00
50103;BME280;35993;52.604;10.078;2023-07-29T03:18:47;100306.47;;;18.04;100.00
50103;BME280;35993;52.604;10.078;2023-07-29T03:21:13;100304.84;;;18.03;100.00
50103;BME280;35993;52.604;10.078;2023-07-29T03:23:39;100312.81;;;18.05;100.00
50103;BME280;35993;52.604;10.078;2023-07-29T03:26:04;100319.41;;;18.04;100.00
50103;BME280;35993;52.604;10.078;2023-07-29T03:28:38;100320.50;;;18.02;100.00
50103;BME280;35993;52.604;10.078;2023-07-29T03:31:04;100328.16;;;18.00;100.00
50103;BME280;35993;52.604;10.078;2023-07-29T03:33:30;100322.69;;;18.00;100.00
50103;BME280;35993;52.604;10.078;2023-07-29T03:35:55;100315.28;;;18.01;100.00
50103;BME280;35993;52.604;10.078;2023-07-29T03:38:21;100313.34;;;18.01;100.00
50103;BME280;35993;52.604;10.078;2023-07-29T03:40:47;100304.00;;;18.08;100.00
50103;BME280;35993;52.604;10.078;2023-07-29T03:43:13;100303.47;;;18.11;100.00
50103;BME280;35993;52.604;10.078;2023-07-29T03:45:39;100305.38;;;18.10;100.00
50103;BME280;35993;52.604;10.078;2023-07-29T03:48:05;100300.44;;;18.07;100.00
50103;BME280;35993;52.604;10.078;2023-07-29T03:50:35;100304.00;;;18.08;100.00
50103;BME280;35993;52.604;10.078;2023-07-29T03:53:04;100294.38;;;18.10;100.00
50103;BME280;35993;52.604;10.078;2023-07-29T03:55:30;100291.94;;;18.79;100.00
50103;BME280;35993;52.604;10.078;2023-07-29T03:58:00;100297.41;;;18.95;100.00
50103;BME280;35993;52.604;10.078;2023-07-29T04:00:26;100292.47;;;18.87;100.00
50103;BME280;35993;52.604;10.078;2023-07-29T04:02:52;100293.84;;;18.89;100.00
50103;BME280;35993;52.604;10.078;2023-07-29T04:05:18;100292.47;;;18.87;100.00
50103;BME280;35993;52.604;10.078;2023-07-29T04:07:44;100290.00;;;18.95;100.00
50103;BME280;35993;52.604;10.078;2023-07-29T04:10:10;100287.50;;;18.89;100.00
50103;BME280;35993;52.604;10.078;2023-07-29T04:12:36;100295.16;;;19.02;100.00
50103;BME280;35993;52.604;10.078;2023-07-29T04:15:02;100301.47;;;19.03;100.00
50103;BME280;35993;52.604;10.078;2023-07-29T04:17:28;100296.56;;;18.99;100.00
50103;BME280;35993;52.604;10.078;2023-07-29T04:19:54;100302.06;;;18.99;100.00
50103;BME280;35993;52.604;10.078;2023-07-29T04:22:22;100296.88;;;18.88;100.00
50103;BME280;35993;52.604;10.078;2023-07-29T04:24:48;100306.19;;;18.97;100.00
50103;BME280;35993;52.604;10.078;2023-07-29T04:27:14;100302.31;;;19.03;100.00
50103;BME280;35993;52.604;10.078;2023-07-29T04:29:39;100290.19;;;19.09;100.00
50103;BME280;35993;52.604;10.078;2023-07-29T04:32:05;100298.19;;;19.06;100.00
50103;BME280;35993;52.604;10.078;2023-07-29T04:34:31;100293.53;;;18.96;100.00
50103;BME280;35993;52.604;10.078;2023-07-29T04:36:57;100294.09;;;18.98;100.00
50103;BME280;35993;52.604;10.078;2023-07-29T04:39:23;100287.19;;;19.06;100.00
50103;BME280;35993;52.604;10.078;2023-07-29T04:41:49;100280.56;;;19.07;100.00
50103;BME280;35993;52.604;10.078;2023-07-29T04:44:14;100278.63;;;19.07;100.00
50103;BME280;35993;52.604;10.078;2023-07-29T04:46:40;100272.50;;;18.60;100.00
50103;BME280;35993;52.604;10.078;2023-07-29T04:49:05;100264.38;;;18.95;100.00
50103;BME280;35993;52.604;10.078;2023-07-29T04:51:31;100264.28;;;19.10;100.00
50103;BME280;35993;52.604;10.078;2023-07-29T04:54:00;100261.03;;;19.08;100.00
50103;BME280;35993;52.604;10.078;2023-07-29T04:56:26;100268.41;;;19.13;100.00
50103;BME280;35993;52.604;10.078;2023-07-29T04:58:51;100263.75;;;19.13;100.00
50103;BME280;35993;52.604;10.078;2023-07-29T05:01:18;100263.19;;;19.11;100.00
50103;BME280;35993;52.604;10.078;2023-07-29T05:03:44;100271.47;;;19.06;100.00
50103;BME280;35993;52.604;10.078;2023-07-29T05:06:11;100272.91;;;18.98;100.00
50103;BME280;35993;52.604;10.078;2023-07-29T05:08:37;100274.53;;;19.05;100.00
50103;BME280;35993;52.604;10.078;2023-07-29T05:11:02;100272.84;;;19.09;100.00
50103;BME280;35993;52.604;10.078;2023-07-29T05:13:28;100283.63;;;19.00;100.00
50103;BME280;35993;52.604;10.078;2023-07-29T05:15:54;100269.31;;;19.03;100.00
50103;BME280;35993;52.604;10.078;2023-07-29T05:18:20;100280.91;;;18.95;100.00
50103;BME280;35993;52.604;10.078;2023-07-29T05:20:46;100272.09;;;18.98;100.00
50103;BME280;35993;52.604;10.078;2023-07-29T05:23:12;100269.78;;;19.10;100.00
50103;BME280;35993;52.604;10.078;2023-07-29T05:25:38;100269.25;;;18.53;100.00
50103;BME280;35993;52.604;10.078;2023-07-29T05:28:04;100261.34;;;19.02;100.00
50103;BME280;35993;52.604;10.078;2023-07-29T05:30:30;100264.41;;;18.84;100.00
50103;BME280;35993;52.604;10.078;2023-07-29T05:33:03;100266.66;;;18.82;100.00
50103;BME280;35993;52.604;10.078;2023-07-29T05:35:29;100276.25;;;18.95;100.00
50103;BME280;35993;52.604;10.078;2023-07-29T05:37:55;100278.69;;;18.97;100.00
50103;BME280;35993;52.604;10.078;2023-07-29T05:40:20;100273.75;;;18.99;100.00
50103;BME280;35993;52.604;10.078;2023-07-29T05:42:46;100273.66;;;19.14;100.00
50103;BME280;35993;52.604;10.078;2023-07-29T05:45:13;100254.09;;;19.16;100.00
50103;BME280;35993;52.604;10.078;2023-07-29T05:47:39;100254.59;;;19.18;100.00
50103;BME280;35993;52.604;10.078;2023-07-29T05:50:05;100258.47;;;19.22;100.00
50103;BME280;35993;52.604;10.078;2023-07-29T05:52:31;100262.56;;;19.25;100.00
50103;BME280;35993;52.604;10.078;2023-07-29T05:54:57;100261.69;;;19.29;100.00
50103;BME280;35993;52.604;10.078;2023-07-29T05:57:22;100263.28;;;19.36;100.00
50103;BME280;35993;52.604;10.078;2023-07-29T05:59:48;100269.31;;;19.43;100.00
50103;BME280;35993;52.604;10.078;2023-07-29T06:02:14;100261.31;;;19.46;100.00
50103;BME280;35993;52.604;10.078;2023-07-29T06:04:39;100256.31;;;19.48;100.00
50103;BME280;35993;52.604;10.078;2023-07-29T06:07:06;100261.59;;;19.40;100.00
50103;BME280;35993;52.604;10.078;2023-07-29T06:09:32;100262.16;;;19.42;100.00
50103;BME280;35993;52.604;10.078;2023-07-29T06:11:57;100266.25;;;19.44;100.00
50103;BME280;35993;52.604;10.078;2023-07-29T06:14:23;100259.34;;;19.47;100.00
50103;BME280;35993;52.604;10.078;2023-07-29T06:16:49;100256.41;;;19.38;100.00
50103;BME280;35993;52.604;10.078;2023-07-29T06:19:14;100248.47;;;19.31;100.00
50103;BME280;35993;52.604;10.078;2023-07-29T06:21:41;100238.16;;;19.47;100.00
50103;BME280;35993;52.604;10.078;2023-07-29T06:24:06;100233.09;;;19.60;100.00
50103;BME280;35993;52.604;10.078;2023-07-29T06:26:32;100236.03;;;19.69;100.00
50103;BME280;35993;52.604;10.078;2023-07-29T06:28:57;100242.56;;;19.78;100.00
50103;BME280;35993;52.604;10.078;2023-07-29T06:31:24;100254.91;;;19.80;100.00
50103;BME280;35993;52.604;10.078;2023-07-29T06:33:49;100264.75;;;19.92;100.00
50103;BME280;35993;52.604;10.078;2023-07-29T06:36:15;100278.03;;;19.90;100.00
50103;BME280;35993;52.604;10.078;2023-07-29T06:38:40;100275.59;;;19.78;100.00
50103;BME280;35993;52.604;10.078;2023-07-29T06:41:07;100273.03;;;19.92;100.00
50103;BME280;35993;52.604;10.078;2023-07-29T06:43:32;100273.59;;;19.59;100.00
50103;BME280;35993;52.604;10.078;2023-07-29T06:45:58;100265.84;;;19.61;100.00
50103;BME280;35993;52.604;10.078;2023-07-29T06:48:24;100265.38;;;19.54;100.00
50103;BME280;35993;52.604;10.078;2023-07-29T06:50:49;100269.94;;;19.64;100.00
50103;BME280;35993;52.604;10.078;2023-07-29T06:53:20;100259.03;;;19.54;100.00
50103;BME280;35993;52.604;10.078;2023-07-29T06:55:46;100261.25;;;19.52;100.00
50103;BME280;35993;52.604;10.078;2023-07-29T06:58:12;100264.22;;;19.55;100.00
50103;BME280;35993;52.604;10.078;2023-07-29T07:00:37;100282.34;;;19.61;100.00
50103;BME280;35993;52.604;10.078;2023-07-29T07:03:03;100281.78;;;19.64;100.00
50103;BME280;35993;52.604;10.078;2023-07-29T07:05:28;100279.94;;;19.55;100.00
50103;BME280;35993;52.604;10.078;2023-07-29T07:07:54;100291.00;;;19.49;100.00
50103;BME280;35993;52.604;10.078;2023-07-29T07:10:19;100300.88;;;19.56;100.00
50103;BME280;35993;52.604;10.078;2023-07-29T07:12:45;100297.22;;;19.65;100.00
50103;BME280;35993;52.604;10.078;2023-07-29T07:15:10;100300.09;;;19.79;100.00
50103;BME280;35993;52.604;10.078;2023-07-29T07:17:36;100299.53;;;19.88;100.00
50103;BME280;35993;52.604;10.078;2023-07-29T07:20:02;100302.56;;;19.86;100.00
50103;BME280;35993;52.604;10.078;2023-07-29T07:22:30;100305.41;;;20.05;100.00
50103;BME280;35993;52.604;10.078;2023-07-29T07:24:55;100306.72;;;20.13;100.00
50103;BME280;35993;52.604;10.078;2023-07-29T07:27:21;100301.72;;;20.15;100.00
50103;BME280;35993;52.604;10.078;2023-07-29T07:29:47;100295.47;;;20.09;100.00
50103;BME280;35993;52.604;10.078;2023-07-29T07:32:12;100293.06;;;20.27;100.00
50103;BME280;35993;52.604;10.078;2023-07-29T07:34:38;100286.59;;;20.37;100.00
50103;BME280;35993;52.604;10.078;2023-07-29T07:37:04;100282.03;;;20.51;100.00
50103;BME280;35993;52.604;10.078;2023-07-29T07:39:31;100284.03;;;20.45;100.00
50103;BME280;35993;52.604;10.078;2023-07-29T07:41:56;100282.25;;;20.30;100.00
50103;BME280;35993;52.604;10.078;2023-07-29T07:44:22;100277.09;;;20.24;100.00
50103;BME280;35993;52.604;10.078;2023-07-29T07:46:47;100280.84;;;20.33;100.00
50103;BME280;35993;52.604;10.078;2023-07-29T07:49:13;100269.94;;;20.47;100.00
50103;BME280;35993;52.604;10.078;2023-07-29T07:51:39;100283.25;;;20.88;100.00
50103;BME280;35993;52.604;10.078;2023-07-29T07:54:05;100280.78;;;20.62;100.00
50103;BME280;35993;52.604;10.078;2023-07-29T07:56:30;100271.81;;;20.76;100.00
50103;BME280;35993;52.604;10.078;2023-07-29T07:58:56;100268.94;;;20.86;100.00
50103;BME280;35993;52.604;10.078;2023-07-29T08:01:21;100270.50;;;20.92;100.00
50103;BME280;35993;52.604;10.078;2023-07-29T08:03:47;100276.91;;;20.88;100.00
50103;BME280;35993;52.604;10.078;2023-07-29T08:06:12;100269.00;;;20.81;100.00
50103;BME280;35993;52.604;10.078;2023-07-29T08:08:38;100264.22;;;20.87;100.00
50103;BME280;35993;52.604;10.078;2023-07-29T08:11:03;100260.72;;;21.00;100.00
50103;BME280;35993;52.604;10.078;2023-07-29T08:13:29;100248.13;;;20.94;100.00
50103;BME280;35993;52.604;10.078;2023-07-29T08:15:54;100231.63;;;21.08;100.00
50103;BME280;35993;52.604;10.078;2023-07-29T08:18:20;100233.63;;;21.21;100.00
50103;BME280;35993;52.604;10.078;2023-07-29T08:20:59;100236.38;;;20.64;100.00
50103;BME280;35993;52.604;10.078;2023-07-29T08:23:31;100234.94;;;20.91;100.00
50103;BME280;35993;52.604;10.078;2023-07-29T08:25:59;100236.41;;;21.02;100.00
50103;BME280;35993;52.604;10.078;2023-07-29T08:28:29;100227.91;;;21.18;100.00
50103;BME280;35993;52.604;10.078;2023-07-29T08:30:55;100245.28;;;21.18;100.00
50103;BME280;35993;52.604;10.078;2023-07-29T08:33:21;100250.00;;;21.18;100.00
50103;BME280;35993;52.604;10.078;2023-07-29T08:35:46;100248.34;;;21.17;100.00
50103;BME280;35993;52.604;10.078;2023-07-29T08:38:12;100254.59;;;21.22;100.00
50103;BME280;35993;52.604;10.078;2023-07-29T08:40:42;100258.44;;;21.40;100.00
50103;BME280;35993;52.604;10.078;2023-07-29T08:43:09;100256.84;;;21.53;100.00
50103;BME280;35993;52.604;10.078;2023-07-29T08:45:35;100253.84;;;21.55;100.00
50103;BME280;35993;52.604;10.078;2023-07-29T08:48:03;100251.09;;;21.55;100.00
50103;BME280;35993;52.604;10.078;2023-07-29T08:50:32;100252.41;;;21.57;100.00
50103;BME280;35993;52.604;10.078;2023-07-29T08:52:59;100253.84;;;21.55;100.00
50103;BME280;35993;52.604;10.078;2023-07-29T08:55:26;100250.16;;;21.59;100.00
50103;BME280;35993;52.604;10.078;2023-07-29T08:57:52;100253.22;;;21.58;100.00
50103;BME280;35993;52.604;10.078;2023-07-29T09:00:19;100247.69;;;21.58;100.00
50103;BME280;35993;52.604;10.078;2023-07-29T09:02:45;100246.19;;;21.66;100.00
50103;BME280;35993;52.604;10.078;2023-07-29T09:05:10;100243.13;;;21.67;100.00
50103;BME280;35993;52.604;10.078;2023-07-29T09:07:36;100238.69;;;21.66;100.00
50103;BME280;35993;52.604;10.078;2023-07-29T09:10:02;100235.84;;;21.71;100.00
50103;BME280;35993;52.604;10.078;2023-07-29T09:12:28;100225.00;;;21.61;100.00
50103;BME280;35993;52.604;10.078;2023-07-29T09:14:53;100231.25;;;21.67;100.00
50103;BME280;35993;52.604;10.078;2023-07-29T09:17:20;100226.31;;;21.64;100.00
50103;BME280;35993;52.604;10.078;2023-07-29T09:19:50;100224.41;;;21.64;100.00
50103;BME280;35993;52.604;10.078;2023-07-29T09:22:19;100224.63;;;21.68;100.00
50103;BME280;35993;52.604;10.078;2023-07-29T09:24:46;100219.69;;;21.65;100.00
50103;BME280;35993;52.604;10.078;2023-07-29T09:27:32;100230.06;;;21.54;100.00
50103;BME280;35993;52.604;10.078;2023-07-29T09:30:04;100225.22;;;21.45;100.00
50103;BME280;35993;52.604;10.078;2023-07-29T09:32:32;100219.91;;;21.49;100.00
50103;BME280;35993;52.604;10.078;2023-07-29T09:34:57;100227.03;;;21.55;100.00
50103;BME280;35993;52.604;10.078;2023-07-29T09:37:23;100229.78;;;21.55;100.00
50103;BME280;35993;52.604;10.078;2023-07-29T09:39:49;100223.72;;;21.53;100.00
50103;BME280;35993;52.604;10.078;2023-07-29T09:42:19;100224.78;;;21.57;100.00
50103;BME280;35993;52.604;10.078;2023-07-29T09:44:45;100225.13;;;21.70;100.00
50103;BME280;35993;52.604;10.078;2023-07-29T09:47:31;100221.06;;;22.09;100.00
50103;BME280;35993;52.604;10.078;2023-07-29T09:49:57;100215.94;;;22.44;100.00
50103;BME280;35993;52.604;10.078;2023-07-29T09:52:23;100217.16;;;22.66;100.00
50103;BME280;35993;52.604;10.078;2023-07-29T09:54:48;100215.50;;;22.65;100.00
50103;BME280;35993;52.604;10.078;2023-07-29T09:57:16;100203.72;;;22.73;100.00
50103;BME280;35993;52.604;10.078;2023-07-29T09:59:43;100200.19;;;22.58;100.00
50103;BME280;35993;52.604;10.078;2023-07-29T10:02:13;100204.38;;;22.56;100.00
50103;BME280;35993;52.604;10.078;2023-07-29T10:04:41;100209.72;;;22.52;100.00
50103;BME280;35993;52.604;10.078;2023-07-29T10:07:09;100202.19;;;22.67;100.00
50103;BME280;35993;52.604;10.078;2023-07-29T10:09:36;100202.84;;;22.86;100.00
50103;BME280;35993;52.604;10.078;2023-07-29T10:12:06;100197.81;;;22.88;100.00
50103;BME280;35993;52.604;10.078;2023-07-29T10:14:32;100190.09;;;22.77;100.00
50103;BME280;35993;52.604;10.078;2023-07-29T10:16:58;100188.13;;;22.77;100.00
50103;BME280;35993;52.604;10.078;2023-07-29T10:19:25;100191.38;;;22.93;100.00
50103;BME280;35993;52.604;10.078;2023-07-29T10:21:52;100190.91;;;23.00;100.00
50103;BME280;35993;52.604;10.078;2023-07-29T10:24:24;100186.59;;;23.07;99.33
50103;BME280;35993;52.604;10.078;2023-07-29T10:26:58;100191.47;;;23.11;99.62
50103;BME280;35993;52.604;10.078;2023-07-29T10:29:28;100194.53;;;22.86;99.21
50103;BME280;35993;52.604;10.078;2023-07-29T10:31:57;100196.69;;;22.53;100.00
50103;BME280;35993;52.604;10.078;2023-07-29T10:34:24;100211.84;;;21.86;100.00
50103;BME280;35993;52.604;10.078;2023-07-29T10:36:50;100211.41;;;21.65;100.00
50103;BME280;35993;52.604;10.078;2023-07-29T10:39:16;100208.41;;;21.61;100.00
50103;BME280;35993;52.604;10.078;2023-07-29T10:47:25;100223.31;;;21.79;100.00
50103;BME280;35993;52.604;10.078;2023-07-29T10:49:57;100227.28;;;22.01;100.00
50103;BME280;35993;52.604;10.078;2023-07-29T10:55:03;100208.09;;;22.37;100.00
50103;BME280;35993;52.604;10.078;2023-07-29T10:57:39;100201.75;;;22.37;100.00
50103;BME280;35993;52.604;10.078;2023-07-29T11:00:07;100196.09;;;22.56;100.00
50103;BME280;35993;52.604;10.078;2023-07-29T11:02:36;100189.88;;;22.73;100.00
50103;BME280;35993;52.604;10.078;2023-07-29T11:05:21;100189.19;;;23.27;100.00
50103;BME280;35993;52.604;10.078;2023-07-29T11:07:47;100180.72;;;23.09;100.00
50103;BME280;35993;52.604;10.078;2023-07-29T11:10:14;100193.47;;;23.33;100.00
50103;BME280;35993;52.604;10.078;2023-07-29T11:12:47;100197.88;;;23.34;100.00
50103;BME280;35993;52.604;10.078;2023-07-29T11:20:22;100200.09;;;23.09;98.94
50103;BME280;35993;52.604;10.078;2023-07-29T11:22:48;100200.41;;;22.85;92.08
50103;BME280;35993;52.604;10.078;2023-07-29T11:25:16;100206.22;;;22.97;92.19
50103;BME280;35993;52.604;10.078;2023-07-29T11:27:42;100209.69;;;22.89;90.87
50103;BME280;35993;52.604;10.078;2023-07-29T11:30:11;100191.66;;;23.14;91.07
50103;BME280;35993;52.604;10.078;2023-07-29T11:32:39;100203.44;;;23.43;88.61
50103;BME280;35993;52.604;10.078;2023-07-29T11:35:06;100198.34;;;23.59;87.14
50103;BME280;35993;52.604;10.078;2023-07-29T11:37:37;100190.97;;;23.54;87.25
50103;BME280;35993;52.604;10.078;2023-07-29T11:40:03;100197.59;;;23.76;87.81
50103;BME280;35993;52.604;10.078;2023-07-29T11:42:32;100191.06;;;23.40;84.72
50103;BME280;35993;52.604;10.078;2023-07-29T11:44:58;100191.81;;;23.54;86.98
50103;BME280;35993;52.604;10.078;2023-07-29T11:47:24;100196.69;;;23.58;85.78
50103;BME280;35993;52.604;10.078;2023-07-29T11:49:50;100195.94;;;23.66;83.83
50103;BME280;35993;52.604;10.078;2023-07-29T11:52:16;100193.94;;;23.58;84.55
50103;BME280;35993;52.604;10.078;2023-07-29T11:54:47;100189.50;;;23.25;82.75
50103;BME280;35993;52.604;10.078;2023-07-29T11:57:13;100197.56;;;23.35;83.97
50103;BME280;35993;52.604;10.078;2023-07-29T11:59:41;100196.09;;;23.38;84.60
50103;BME280;35993;52.604;10.078;2023-07-29T12:02:15;100200.88;;;23.78;84.43
50103;BME280;35993;52.604;10.078;2023-07-29T12:04:43;100195.31;;;24.09;79.54
50103;BME280;35993;52.604;10.078;2023-07-29T12:07:09;100180.19;;;24.15;73.08
50103;BME280;35993;52.604;10.078;2023-07-29T12:09:35;100176.16;;;24.39;69.59
50103;BME280;35993;52.604;10.078;2023-07-29T12:12:06;100170.75;;;24.25;66.15
50103;BME280;35993;52.604;10.078;2023-07-29T12:14:32;100182.28;;;24.10;66.30
50103;BME280;35993;52.604;10.078;2023-07-29T12:17:05;100184.81;;;24.37;65.99
50103;BME280;35993;52.604;10.078;2023-07-29T12:19:35;100188.75;;;23.96;64.77
50103;BME280;35993;52.604;10.078;2023-07-29T12:22:02;100197.50;;;23.89;66.70
50103;BME280;35993;52.604;10.078;2023-07-29T12:24:33;100195.25;;;23.60;65.24
50103;BME280;35993;52.604;10.078;2023-07-29T12:26:59;100189.34;;;23.53;66.18
50103;BME280;35993;52.604;10.078;2023-07-29T12:29:25;100200.13;;;23.54;67.77
50103;BME280;35993;52.604;10.078;2023-07-29T12:31:59;100205.47;;;24.14;67.33
50103;BME280;35993;52.604;10.078;2023-07-29T12:34:26;100193.75;;;24.26;64.70
50103;BME280;35993;52.604;10.078;2023-07-29T12:36:52;100185.50;;;24.61;64.14
50103;BME280;35993;52.604;10.078;2023-07-29T12:39:22;100157.91;;;24.56;60.45
50103;BME280;35993;52.604;10.078;2023-07-29T12:41:48;100174.22;;;24.57;60.31
50103;BME280;35993;52.604;10.078;2023-07-29T12:44:14;100160.84;;;24.59;58.62